Hardin, IL

9:48 PM CDT on July 02, 2015 (GMT -0500)
Blue Ridge | | Change Station
CLOSE
Current Station
Personal Weather Station
Location: Hardin, IL
Elevation: 748 ft
Nearby Weather Stations
Active Advisory: Flood Warning

Elev 748 ft 39.15 °N, 90.65 °W | Updated 53 seconds ago

Mostly Cloudy
Mostly Cloudy
65.3 °F
Feels Like 65.3 °F
N
2.0
Wind Variable Wind from East
Gusts 5.0 mph

Today
High -- | Low -- °F
--% Chance of Precip.
Yesterday
High -- | Low -- °F
Precip. -- in
5:40 AM 8:32 PM
Full, 99% visible
Pressure 29.89 in
Visibility 10.0 miles
Clouds Clear
Dew Point 62 °F
Humidity 88%
Rainfall 0.07 in
Snow Depth Not available.
UV 0 out of 12
Pollen .60 out of 12
Air Quality Not available.
Flu Activity Not available.
METAR KSET 030154Z AUTO 04008KT 10SM CLR 21/17 A2990 RMK AO2 SLP121 T02060172

More Conditions Fewer Conditions

Pressure 29.89 in
Visibility 10.0 miles
Clouds Clear
Dew Point 62 °F
Humidity 88%
Rainfall 0.07 in
Snow Depth Not available.
UV 0 out of 12
Pollen .60 out of 12
Air Quality Not available.
Flu Activity Not available.
METAR KSET 030154Z AUTO 04008KT 10SM CLR 21/17 A2990 RMK AO2 SLP121 T02060172

More Conditions Fewer Conditions

10-Day Weather Forecast

×

Almanac

Astronomy

Jul. 02, 2015 Rise Set
Actual Time
Civil Twilight
Nautical Twilight
Astronomical Twilight
Moon
Length of Visible Light
Length of Day
Tomorrow will be .
, % of the Moon is Illuminated

Today's Extremes

State Highs State Lows

Community

WunderPhotos

Upload Photos

1,834,594 photos uploaded!

WunderBlogs® & News

Nearby

Air Quality

  Air Quality AQ Index Pollutant
Not available.

Snow Depth

Station Depth Elevation

Earthquake Activity

City Distance Mag. Time & Date
Minimum magnitude displayed is 2.5.

Coastal Water Temperatures

Place Temperature

Stations

Nearby Weather Stations

Station Location Temp. Windchill Dew Point Humidity Wind Precip. Elev Updated Type
                   
Flood Warning
Statement as of 8:16 PM CDT on July 02, 2015

The Flood Warning continues for
the Illinois River at Hardin.
* At 7:30 PM Thursday the stage was 35.9 feet.
* Flood stage is 25.0 feet.
* Major flooding is occurring.
* Forecast: the river will fall to near 35.1 feet by Saturday morning.
* Impact: at 35.0 feet... flood fighting activities begin in Hillview.
* Impact: at 34.7 feet... Illinois River Road, or Highway 1, in south
Hardin begins flooding.

                   Fld latest 7 a.M. Forecast
location stg obs stg 07/03 07/04 07/05 07/06 07/07

Illinois River
Hardin 25.0 35.88 35.7 35.1 34.3 33.4 32.5




Lat... Lon 3952 9064 3952 9052 3898 9048 3891 9054
      3903 9062